Chesterfield, North Carolina
Current Conditions -  °F | °C
As of 5:15 AM on Sunday 25 Jan 2015 (Local Time) from KMRN Reporting Station
Clear Clear  
Wind Chill: 29°   Ceiling: Unl
Heat Index: 29°   Visibility: 10mi
Dew Point: 27°   Wind: 0mph
Humidity: 92%   Direction: NA
Pressure: 29.9"   Gusts: NA
Location:  35.7567°N, 81.7518°W
Report Text: KMRN 251015Z AUTO 00000KT 10SM CLR M01/M03 A2990 RMK AO2 T10151027
Loading
Personal Weather Stations






























Interactive Weather Map New forecast layout! Learn more

10-Day Weather Forecast

Advertisements
Track Severe Weather on mobile